ASY541 KLSV-KSRQ
Flight info
| Callsign | ASY541 |
|---|---|
| Flight time | 2h 48m |
| Altitude | 39000 |
| Route | MMM8 MMM ABQ J72 SPS GGG MCB WIGGO DAAWG RAYZZ2 |
| Aircraft | F35/M-SDILOTUVY/C |
Departure
| Time | 2026-04-28 09:20 |
|---|---|
| Airport | Nellis Air Force Base (KLSV) |
Arrival
| Time | 2026-04-28 12:08 |
|---|---|
| Airport | Sarasota Bradenton International Airport (KSRQ) |
| Time | Latitude | Longitude | Altitude | Speed | Heading |
|---|---|---|---|---|---|
| 2026-04-28 09:20 | 36.43938 | -114.81744 | 18154 ft | 627 kts | 44° |
| 2026-04-28 09:20 | 36.46694 | -114.77618 | 18869 ft | 630 kts | 52° |
| 2026-04-28 09:20 | 36.49225 | -114.73098 | 19587 ft | 629 kts | 53° |
| 2026-04-28 09:21 | 36.51880 | -114.68799 | 20332 ft | 626 kts | 49° |
| 2026-04-28 09:21 | 36.54542 | -114.64498 | 21081 ft | 626 kts | 52° |
| 2026-04-28 09:21 | 36.57155 | -114.60172 | 21868 ft | 625 kts | 50° |
| 2026-04-28 09:21 | 36.59812 | -114.55891 | 22662 ft | 624 kts | 51° |
| 2026-04-28 09:22 | 36.62383 | -114.51633 | 23471 ft | 622 kts | 50° |
| 2026-04-28 09:22 | 36.65011 | -114.47351 | 24184 ft | 621 kts | 50° |
| 2026-04-28 09:22 | 36.67624 | -114.43057 | 24900 ft | 619 kts | 51° |
| 2026-04-28 09:22 | 36.70215 | -114.38792 | 25627 ft | 618 kts | 50° |
| 2026-04-28 09:23 | 36.72819 | -114.34519 | 26370 ft | 619 kts | 50° |
| 2026-04-28 09:23 | 36.75352 | -114.30191 | 27158 ft | 617 kts | 57° |
| 2026-04-28 09:23 | 36.77127 | -114.25313 | 28030 ft | 619 kts | 73° |
| 2026-04-28 09:23 | 36.77831 | -114.20056 | 28940 ft | 618 kts | 90° |
| 2026-04-28 09:24 | 36.77426 | -114.14736 | 29882 ft | 614 kts | 106° |
| 2026-04-28 09:24 | 36.76132 | -114.09670 | 30696 ft | 611 kts | 113° |
| 2026-04-28 09:24 | 36.74599 | -114.04732 | 31453 ft | 611 kts | 115° |
| 2026-04-28 09:24 | 36.73067 | -113.99852 | 32214 ft | 612 kts | 114° |
| 2026-04-28 09:25 | 36.71575 | -113.94874 | 33024 ft | 614 kts | 114° |
| 2026-04-28 09:25 | 36.70137 | -113.89858 | 33847 ft | 615 kts | 113° |
| 2026-04-28 09:25 | 36.68718 | -113.84803 | 34581 ft | 615 kts | 113° |
| 2026-04-28 09:25 | 36.67347 | -113.79762 | 35294 ft | 617 kts | 109° |
| 2026-04-28 09:26 | 36.66346 | -113.74541 | 36053 ft | 620 kts | 104° |
| 2026-04-28 09:26 | 36.65371 | -113.69321 | 36837 ft | 617 kts | 109° |
| 2026-04-28 09:26 | 36.64269 | -113.64169 | 37643 ft | 617 kts | 107° |
| 2026-04-28 09:26 | 36.63272 | -113.58969 | 38439 ft | 617 kts | 108° |
| 2026-04-28 09:27 | 36.61149 | -113.48595 | 38904 ft | 626 kts | 108° |
| 2026-04-28 09:27 | 36.59000 | -113.38071 | 38974 ft | 628 kts | 108° |
| 2026-04-28 09:28 | 36.56844 | -113.27509 | 38992 ft | 629 kts | 108° |
| 2026-04-28 09:28 | 36.54676 | -113.16945 | 38990 ft | 630 kts | 108° |
| 2026-04-28 09:29 | 36.52493 | -113.06379 | 39009 ft | 631 kts | 108° |
| 2026-04-28 09:29 | 36.50297 | -112.95801 | 39015 ft | 632 kts | 109° |
| 2026-04-28 09:30 | 36.48102 | -112.85277 | 39009 ft | 633 kts | 109° |
| 2026-04-28 09:30 | 36.45883 | -112.74685 | 39014 ft | 633 kts | 109° |
| 2026-04-28 09:31 | 36.43654 | -112.64099 | 39015 ft | 633 kts | 109° |
| 2026-04-28 09:31 | 36.41411 | -112.53495 | 39025 ft | 634 kts | 109° |
| 2026-04-28 09:32 | 36.39161 | -112.42907 | 39032 ft | 635 kts | 109° |
| 2026-04-28 09:32 | 36.36895 | -112.32294 | 39048 ft | 636 kts | 109° |
| 2026-04-28 09:33 | 36.34616 | -112.21677 | 39028 ft | 637 kts | 110° |
| 2026-04-28 09:33 | 36.32325 | -112.11047 | 39012 ft | 638 kts | 110° |
| 2026-04-28 09:34 | 36.30035 | -112.00473 | 39002 ft | 639 kts | 110° |
| 2026-04-28 09:34 | 36.27717 | -111.89821 | 39001 ft | 640 kts | 110° |
| 2026-04-28 09:35 | 36.25384 | -111.79161 | 39001 ft | 640 kts | 110° |
| 2026-04-28 09:35 | 36.23048 | -111.68506 | 38961 ft | 641 kts | 110° |
| 2026-04-28 09:36 | 36.20693 | -111.57838 | 38957 ft | 642 kts | 110° |
| 2026-04-28 09:36 | 36.18326 | -111.47165 | 38954 ft | 644 kts | 110° |
| 2026-04-28 09:37 | 36.15945 | -111.36476 | 38952 ft | 644 kts | 110° |
| 2026-04-28 09:37 | 36.13551 | -111.25772 | 38955 ft | 645 kts | 111° |
| 2026-04-28 09:38 | 36.11161 | -111.15139 | 38950 ft | 646 kts | 111° |
| 2026-04-28 09:38 | 36.08743 | -111.04426 | 38951 ft | 646 kts | 111° |
| 2026-04-28 09:39 | 36.06311 | -110.93706 | 38949 ft | 647 kts | 111° |
| 2026-04-28 09:39 | 36.03864 | -110.82966 | 38959 ft | 648 kts | 111° |
| 2026-04-28 09:40 | 36.01412 | -110.72250 | 38949 ft | 649 kts | 111° |
| 2026-04-28 09:40 | 35.98981 | -110.61674 | 38945 ft | 646 kts | 111° |
| 2026-04-28 09:41 | 35.96495 | -110.50902 | 38949 ft | 655 kts | 111° |
| 2026-04-28 09:41 | 35.93991 | -110.40115 | 38971 ft | 652 kts | 111° |
| 2026-04-28 09:42 | 35.91492 | -110.29392 | 38961 ft | 653 kts | 111° |
| 2026-04-28 09:42 | 35.88986 | -110.18684 | 38956 ft | 647 kts | 112° |
| 2026-04-28 09:43 | 35.86476 | -110.08004 | 38951 ft | 648 kts | 112° |
| 2026-04-28 09:43 | 35.83957 | -109.97333 | 38952 ft | 648 kts | 112° |
| 2026-04-28 09:44 | 35.81443 | -109.86733 | 38941 ft | 647 kts | 112° |
| 2026-04-28 09:44 | 35.78898 | -109.76048 | 38933 ft | 649 kts | 112° |
| 2026-04-28 09:45 | 35.76345 | -109.65378 | 38947 ft | 649 kts | 112° |
| 2026-04-28 09:45 | 35.73786 | -109.54723 | 38952 ft | 649 kts | 112° |
| 2026-04-28 09:46 | 35.71228 | -109.44122 | 38975 ft | 650 kts | 112° |
| 2026-04-28 09:46 | 35.68643 | -109.33454 | 39035 ft | 650 kts | 112° |
| 2026-04-28 09:47 | 35.66049 | -109.22794 | 39097 ft | 650 kts | 112° |
| 2026-04-28 09:47 | 35.63456 | -109.12184 | 39115 ft | 650 kts | 112° |
| 2026-04-28 09:48 | 35.60842 | -109.01534 | 39123 ft | 651 kts | 112° |
| 2026-04-28 09:48 | 35.58218 | -108.90886 | 39106 ft | 651 kts | 112° |
| 2026-04-28 09:49 | 35.55582 | -108.80237 | 39133 ft | 651 kts | 113° |
| 2026-04-28 09:49 | 35.52935 | -108.69587 | 39131 ft | 651 kts | 113° |
| 2026-04-28 09:50 | 35.50295 | -108.59012 | 39074 ft | 652 kts | 113° |
| 2026-04-28 09:50 | 35.47629 | -108.48373 | 39015 ft | 652 kts | 113° |
| 2026-04-28 09:51 | 35.44951 | -108.37732 | 38945 ft | 652 kts | 113° |
| 2026-04-28 09:51 | 35.42269 | -108.27120 | 38944 ft | 652 kts | 113° |
| 2026-04-28 09:52 | 35.39589 | -108.16561 | 38976 ft | 651 kts | 113° |
| 2026-04-28 09:52 | 35.36889 | -108.05964 | 39021 ft | 652 kts | 113° |
| 2026-04-28 09:53 | 35.34630 | -107.97133 | 39070 ft | 652 kts | 113° |
| 2026-04-28 09:53 | 35.31911 | -107.86540 | 39092 ft | 652 kts | 114° |
| 2026-04-28 09:54 | 35.29179 | -107.75940 | 39091 ft | 652 kts | 114° |
| 2026-04-28 09:54 | 35.26431 | -107.65323 | 39046 ft | 652 kts | 114° |
| 2026-04-28 09:55 | 35.23693 | -107.54786 | 38993 ft | 651 kts | 114° |
| 2026-04-28 09:55 | 35.20941 | -107.44240 | 38919 ft | 651 kts | 114° |
| 2026-04-28 09:56 | 35.18193 | -107.33750 | 38909 ft | 650 kts | 114° |
| 2026-04-28 09:56 | 35.15429 | -107.23240 | 38919 ft | 650 kts | 114° |
| 2026-04-28 09:57 | 35.12645 | -107.12692 | 38968 ft | 652 kts | 114° |
| 2026-04-28 09:57 | 35.09841 | -107.02119 | 39020 ft | 653 kts | 114° |
| 2026-04-28 09:58 | 35.07053 | -106.91643 | 39063 ft | 653 kts | 114° |
| 2026-04-28 09:58 | 35.04356 | -106.80993 | 39079 ft | 658 kts | 111° |
| 2026-04-28 09:59 | 35.02952 | -106.69838 | 39092 ft | 670 kts | 99° |
| 2026-04-28 09:59 | 35.01565 | -106.58703 | 39095 ft | 669 kts | 101° |
| 2026-04-28 10:00 | 35.00186 | -106.47472 | 39228 ft | 669 kts | 103° |
| 2026-04-28 10:00 | 34.99519 | -106.41844 | 39031 ft | 669 kts | 103° |
| 2026-04-28 10:00 | 34.98801 | -106.36226 | 39021 ft | 668 kts | 103° |
| 2026-04-28 10:01 | 34.97413 | -106.25072 | 38963 ft | 668 kts | 103° |
| 2026-04-28 10:01 | 34.96001 | -106.13861 | 38927 ft | 667 kts | 103° |
| 2026-04-28 10:02 | 34.94584 | -106.02737 | 38943 ft | 667 kts | 103° |
| 2026-04-28 10:02 | 34.93148 | -105.91541 | 38943 ft | 668 kts | 103° |
| 2026-04-28 10:03 | 34.91710 | -105.80394 | 38952 ft | 669 kts | 103° |
| 2026-04-28 10:03 | 34.90252 | -105.69177 | 38943 ft | 670 kts | 103° |
| 2026-04-28 10:04 | 34.88781 | -105.57946 | 38922 ft | 669 kts | 103° |
| 2026-04-28 10:04 | 34.87306 | -105.46768 | 38907 ft | 668 kts | 103° |
| 2026-04-28 10:05 | 34.85826 | -105.35640 | 38894 ft | 668 kts | 103° |
| 2026-04-28 10:05 | 34.84330 | -105.24463 | 38887 ft | 667 kts | 103° |
| 2026-04-28 10:06 | 34.82836 | -105.13381 | 38874 ft | 665 kts | 103° |
| 2026-04-28 10:06 | 34.81323 | -105.02240 | 38872 ft | 665 kts | 104° |
| 2026-04-28 10:07 | 34.79815 | -104.91210 | 38902 ft | 664 kts | 104° |
| 2026-04-28 10:07 | 34.78285 | -104.80106 | 38928 ft | 664 kts | 104° |
| 2026-04-28 10:08 | 34.76748 | -104.69023 | 38946 ft | 664 kts | 104° |
| 2026-04-28 10:08 | 34.75207 | -104.57989 | 38926 ft | 664 kts | 104° |
| 2026-04-28 10:09 | 34.73649 | -104.46907 | 38895 ft | 665 kts | 104° |
| 2026-04-28 10:09 | 34.72079 | -104.35809 | 38838 ft | 666 kts | 104° |
| 2026-04-28 10:10 | 34.70498 | -104.24711 | 38803 ft | 667 kts | 104° |
| 2026-04-28 10:10 | 34.68900 | -104.13575 | 38800 ft | 668 kts | 104° |
| 2026-04-28 10:11 | 34.67303 | -104.02522 | 38806 ft | 668 kts | 104° |
| 2026-04-28 10:11 | 34.65681 | -103.91368 | 38796 ft | 668 kts | 104° |
| 2026-04-28 10:12 | 34.64053 | -103.80242 | 38794 ft | 669 kts | 104° |
| 2026-04-28 10:12 | 34.62424 | -103.69184 | 38796 ft | 669 kts | 104° |
| 2026-04-28 10:13 | 34.60773 | -103.58051 | 38834 ft | 669 kts | 104° |
| 2026-04-28 10:13 | 34.59116 | -103.46945 | 38878 ft | 669 kts | 104° |
| 2026-04-28 10:14 | 34.57447 | -103.35833 | 38911 ft | 669 kts | 104° |
| 2026-04-28 10:14 | 34.55774 | -103.24772 | 38926 ft | 669 kts | 104° |
| 2026-04-28 10:15 | 34.54085 | -103.13666 | 38978 ft | 669 kts | 104° |
| 2026-04-28 10:15 | 34.52386 | -103.02572 | 38983 ft | 668 kts | 104° |
| 2026-04-28 10:16 | 34.50674 | -102.91464 | 38964 ft | 668 kts | 104° |
| 2026-04-28 10:16 | 34.49058 | -102.80420 | 38941 ft | 671 kts | 98° |
| 2026-04-28 10:17 | 34.47972 | -102.69169 | 38901 ft | 671 kts | 100° |
| 2026-04-28 10:17 | 34.46832 | -102.57900 | 38876 ft | 671 kts | 101° |
| 2026-04-28 10:18 | 34.45668 | -102.46661 | 38869 ft | 672 kts | 100° |
| 2026-04-28 10:18 | 34.44491 | -102.35508 | 38865 ft | 673 kts | 100° |
| 2026-04-28 10:19 | 34.43290 | -102.24253 | 38865 ft | 674 kts | 100° |
| 2026-04-28 10:19 | 34.42080 | -102.12970 | 38860 ft | 674 kts | 100° |
| 2026-04-28 10:20 | 34.40861 | -102.01692 | 38854 ft | 674 kts | 100° |
| 2026-04-28 10:20 | 34.39639 | -101.90486 | 38874 ft | 675 kts | 100° |
| 2026-04-28 10:21 | 34.38397 | -101.79193 | 38892 ft | 675 kts | 100° |
| 2026-04-28 10:21 | 34.37143 | -101.67898 | 38898 ft | 676 kts | 100° |
| 2026-04-28 10:22 | 34.35889 | -101.56688 | 38892 ft | 676 kts | 100° |
| 2026-04-28 10:22 | 34.34615 | -101.45408 | 38868 ft | 675 kts | 101° |
| 2026-04-28 10:23 | 34.33334 | -101.34150 | 38841 ft | 676 kts | 101° |
| 2026-04-28 10:23 | 34.32029 | -101.22780 | 38813 ft | 685 kts | 100° |
| 2026-04-28 10:24 | 34.30717 | -101.11455 | 38831 ft | 682 kts | 100° |
| 2026-04-28 10:24 | 34.29392 | -101.00088 | 38828 ft | 681 kts | 100° |
| 2026-04-28 10:25 | 34.28060 | -100.88751 | 38823 ft | 680 kts | 100° |
| 2026-04-28 10:25 | 34.26728 | -100.77508 | 38823 ft | 679 kts | 100° |
| 2026-04-28 10:26 | 34.25375 | -100.66192 | 38826 ft | 678 kts | 100° |
| 2026-04-28 10:26 | 34.24017 | -100.54910 | 38842 ft | 678 kts | 100° |
| 2026-04-28 10:27 | 34.22648 | -100.43630 | 38846 ft | 677 kts | 100° |
| 2026-04-28 10:27 | 34.21278 | -100.32425 | 38851 ft | 677 kts | 101° |
| 2026-04-28 10:28 | 34.19887 | -100.21154 | 38842 ft | 677 kts | 101° |
| 2026-04-28 10:29 | 34.17786 | -100.04291 | 38821 ft | 676 kts | 101° |
| 2026-04-28 10:29 | 34.16385 | -99.93152 | 38815 ft | 675 kts | 101° |
| 2026-04-28 10:30 | 34.14963 | -99.81934 | 38812 ft | 675 kts | 101° |
| 2026-04-28 10:30 | 34.13533 | -99.70734 | 38811 ft | 674 kts | 101° |
| 2026-04-28 10:31 | 34.12102 | -99.59606 | 38802 ft | 673 kts | 101° |
| 2026-04-28 10:31 | 34.10654 | -99.48437 | 38795 ft | 673 kts | 101° |
| 2026-04-28 10:32 | 34.09197 | -99.37274 | 38796 ft | 672 kts | 101° |
| 2026-04-28 10:32 | 34.07736 | -99.26164 | 38794 ft | 672 kts | 101° |
| 2026-04-28 10:33 | 34.06261 | -99.15032 | 38806 ft | 672 kts | 101° |
| 2026-04-28 10:33 | 34.04775 | -99.03889 | 38808 ft | 671 kts | 101° |
| 2026-04-28 10:34 | 34.03292 | -98.92850 | 38811 ft | 671 kts | 101° |
| 2026-04-28 10:34 | 34.01788 | -98.81728 | 38826 ft | 670 kts | 101° |
| 2026-04-28 10:35 | 34.00275 | -98.70622 | 38851 ft | 670 kts | 101° |
| 2026-04-28 10:35 | 33.98515 | -98.59670 | 38886 ft | 666 kts | 109° |
| 2026-04-28 10:36 | 33.95045 | -98.49426 | 38886 ft | 657 kts | 123° |
| 2026-04-28 10:36 | 33.91089 | -98.39545 | 38898 ft | 660 kts | 118° |
| 2026-04-28 10:37 | 33.87178 | -98.29574 | 38880 ft | 659 kts | 118° |
| 2026-04-28 10:37 | 33.83273 | -98.19591 | 38855 ft | 659 kts | 119° |
| 2026-04-28 10:38 | 33.79396 | -98.09668 | 38837 ft | 659 kts | 120° |
| 2026-04-28 10:38 | 33.75485 | -97.99689 | 38837 ft | 659 kts | 120° |
| 2026-04-28 10:39 | 33.71558 | -97.89711 | 38837 ft | 660 kts | 120° |
| 2026-04-28 10:39 | 33.67620 | -97.79741 | 38842 ft | 661 kts | 120° |
| 2026-04-28 10:40 | 33.63702 | -97.69850 | 38845 ft | 661 kts | 119° |
| 2026-04-28 10:40 | 33.60385 | -97.61494 | 38848 ft | 661 kts | 119° |
| 2026-04-28 10:41 | 33.56435 | -97.51572 | 38859 ft | 662 kts | 119° |
| 2026-04-28 10:41 | 33.52455 | -97.41606 | 38881 ft | 663 kts | 119° |
| 2026-04-28 10:42 | 33.48462 | -97.31634 | 38890 ft | 663 kts | 119° |
| 2026-04-28 10:42 | 33.44455 | -97.21659 | 38886 ft | 664 kts | 119° |
| 2026-04-28 10:43 | 33.40441 | -97.11692 | 38874 ft | 663 kts | 119° |
| 2026-04-28 10:43 | 33.36424 | -97.01750 | 38874 ft | 664 kts | 119° |
| 2026-04-28 10:44 | 33.32425 | -96.91879 | 38874 ft | 664 kts | 119° |
| 2026-04-28 10:44 | 33.28376 | -96.81914 | 38885 ft | 665 kts | 119° |
| 2026-04-28 10:45 | 33.24320 | -96.71961 | 38900 ft | 666 kts | 119° |
| 2026-04-28 10:45 | 33.20259 | -96.62024 | 38906 ft | 666 kts | 119° |
| 2026-04-28 10:46 | 33.16175 | -96.52060 | 38905 ft | 666 kts | 119° |
| 2026-04-28 10:46 | 33.12107 | -96.42161 | 38894 ft | 667 kts | 119° |
| 2026-04-28 10:47 | 33.08013 | -96.32230 | 38891 ft | 667 kts | 119° |
| 2026-04-28 10:47 | 33.03904 | -96.22290 | 38912 ft | 667 kts | 119° |
| 2026-04-28 10:48 | 32.99812 | -96.12418 | 38919 ft | 667 kts | 119° |
| 2026-04-28 10:48 | 32.95692 | -96.02508 | 38918 ft | 666 kts | 119° |
| 2026-04-28 10:49 | 32.91568 | -95.92615 | 38900 ft | 666 kts | 119° |
| 2026-04-28 10:49 | 32.87461 | -95.82794 | 38879 ft | 666 kts | 120° |
| 2026-04-28 10:50 | 32.83326 | -95.72930 | 38888 ft | 665 kts | 119° |
| 2026-04-28 10:50 | 32.79184 | -95.63079 | 38903 ft | 665 kts | 119° |
| 2026-04-28 10:51 | 32.75034 | -95.53236 | 38912 ft | 665 kts | 119° |
| 2026-04-28 10:51 | 32.70903 | -95.43463 | 38910 ft | 665 kts | 119° |
| 2026-04-28 10:52 | 32.66745 | -95.33656 | 38903 ft | 665 kts | 119° |
| 2026-04-28 10:52 | 32.62576 | -95.23849 | 38890 ft | 664 kts | 119° |
| 2026-04-28 10:53 | 32.58434 | -95.14133 | 38914 ft | 663 kts | 119° |
| 2026-04-28 10:53 | 32.54258 | -95.04364 | 38918 ft | 663 kts | 119° |
| 2026-04-28 10:54 | 32.50079 | -94.94614 | 38913 ft | 663 kts | 119° |
| 2026-04-28 10:54 | 32.45892 | -94.84871 | 38918 ft | 662 kts | 119° |
| 2026-04-28 10:55 | 32.41907 | -94.75113 | 38940 ft | 663 kts | 113° |
| 2026-04-28 10:55 | 32.39266 | -94.64671 | 38953 ft | 663 kts | 101° |
| 2026-04-28 10:56 | 32.36897 | -94.54120 | 38931 ft | 663 kts | 104° |
| 2026-04-28 10:56 | 32.34504 | -94.43575 | 38926 ft | 663 kts | 105° |
| 2026-04-28 10:57 | 32.32092 | -94.33038 | 38929 ft | 663 kts | 105° |
| 2026-04-28 10:57 | 32.29678 | -94.22596 | 38929 ft | 663 kts | 105° |
| 2026-04-28 10:58 | 32.27234 | -94.12100 | 38930 ft | 662 kts | 104° |
| 2026-04-28 10:58 | 32.24784 | -94.01616 | 38933 ft | 661 kts | 104° |
| 2026-04-28 10:59 | 32.22328 | -93.91133 | 38939 ft | 660 kts | 105° |
| 2026-04-28 10:59 | 32.19868 | -93.80674 | 38931 ft | 660 kts | 105° |
| 2026-04-28 11:00 | 32.17422 | -93.70317 | 38931 ft | 658 kts | 105° |
| 2026-04-28 11:00 | 32.14958 | -93.59929 | 38932 ft | 658 kts | 105° |
| 2026-04-28 11:01 | 32.12479 | -93.49519 | 38935 ft | 656 kts | 105° |
| 2026-04-28 11:01 | 32.10003 | -93.39163 | 38939 ft | 655 kts | 105° |
| 2026-04-28 11:02 | 32.07525 | -93.28838 | 38940 ft | 654 kts | 105° |
| 2026-04-28 11:02 | 32.05054 | -93.18583 | 38948 ft | 653 kts | 105° |
| 2026-04-28 11:03 | 32.02558 | -93.08262 | 38959 ft | 652 kts | 105° |
| 2026-04-28 11:03 | 32.00078 | -92.98051 | 38964 ft | 651 kts | 105° |
| 2026-04-28 11:04 | 31.97588 | -92.87834 | 38966 ft | 650 kts | 105° |
| 2026-04-28 11:04 | 31.95071 | -92.77550 | 38964 ft | 649 kts | 105° |
| 2026-04-28 11:05 | 31.92565 | -92.67347 | 38965 ft | 648 kts | 105° |
| 2026-04-28 11:05 | 31.90064 | -92.57204 | 38962 ft | 647 kts | 105° |
| 2026-04-28 11:06 | 31.87557 | -92.47071 | 38970 ft | 647 kts | 105° |
| 2026-04-28 11:06 | 31.85027 | -92.36889 | 38972 ft | 646 kts | 105° |
| 2026-04-28 11:07 | 31.82500 | -92.26753 | 38977 ft | 645 kts | 105° |
| 2026-04-28 11:07 | 31.79963 | -92.16618 | 38981 ft | 645 kts | 105° |
| 2026-04-28 11:08 | 31.77438 | -92.06566 | 38980 ft | 644 kts | 105° |
| 2026-04-28 11:08 | 31.74894 | -91.96475 | 38989 ft | 642 kts | 105° |
| 2026-04-28 11:09 | 31.72365 | -91.86482 | 38992 ft | 641 kts | 105° |
| 2026-04-28 11:09 | 31.69810 | -91.76422 | 38992 ft | 640 kts | 105° |
| 2026-04-28 11:10 | 31.67249 | -91.66375 | 39005 ft | 639 kts | 105° |
| 2026-04-28 11:10 | 31.64691 | -91.56377 | 39016 ft | 638 kts | 105° |
| 2026-04-28 11:11 | 31.62150 | -91.46477 | 39030 ft | 637 kts | 105° |
| 2026-04-28 11:11 | 31.59584 | -91.36518 | 39035 ft | 636 kts | 105° |
| 2026-04-28 11:12 | 31.57018 | -91.26595 | 39038 ft | 635 kts | 105° |
| 2026-04-28 11:12 | 31.54460 | -91.16738 | 39030 ft | 633 kts | 105° |
| 2026-04-28 11:13 | 31.51889 | -91.06862 | 39029 ft | 633 kts | 106° |
| 2026-04-28 11:13 | 31.49310 | -90.96995 | 39033 ft | 632 kts | 106° |
| 2026-04-28 11:14 | 31.46726 | -90.87141 | 39035 ft | 631 kts | 106° |
| 2026-04-28 11:14 | 31.44156 | -90.77372 | 39038 ft | 630 kts | 106° |
| 2026-04-28 11:15 | 31.41562 | -90.67550 | 39051 ft | 629 kts | 106° |
| 2026-04-28 11:15 | 31.38972 | -90.57770 | 39062 ft | 628 kts | 106° |
| 2026-04-28 11:16 | 31.36392 | -90.48065 | 39069 ft | 627 kts | 106° |
| 2026-04-28 11:16 | 31.33788 | -90.38303 | 39070 ft | 626 kts | 106° |
| 2026-04-28 11:17 | 31.31163 | -90.28667 | 39064 ft | 625 kts | 109° |
| 2026-04-28 11:17 | 31.27548 | -90.19431 | 39081 ft | 624 kts | 122° |
| 2026-04-28 11:18 | 31.23162 | -90.10706 | 39063 ft | 624 kts | 118° |
| 2026-04-28 11:18 | 31.18875 | -90.01880 | 39066 ft | 623 kts | 119° |
| 2026-04-28 11:19 | 31.14606 | -89.93061 | 39060 ft | 622 kts | 120° |
| 2026-04-28 11:19 | 31.11072 | -89.85748 | 39070 ft | 621 kts | 120° |
| 2026-04-28 11:20 | 31.06111 | -89.75560 | 39068 ft | 619 kts | 120° |
| 2026-04-28 11:20 | 31.01852 | -89.66839 | 39074 ft | 618 kts | 120° |
| 2026-04-28 11:21 | 30.97586 | -89.58121 | 39075 ft | 617 kts | 120° |
| 2026-04-28 11:21 | 30.93350 | -89.49481 | 39074 ft | 616 kts | 120° |
| 2026-04-28 11:22 | 30.89095 | -89.40817 | 39077 ft | 615 kts | 120° |
| 2026-04-28 11:22 | 30.84836 | -89.32166 | 39081 ft | 614 kts | 120° |
| 2026-04-28 11:23 | 30.80593 | -89.23531 | 39081 ft | 613 kts | 118° |
| 2026-04-28 11:23 | 30.76220 | -89.15074 | 39082 ft | 612 kts | 120° |
| 2026-04-28 11:24 | 30.71828 | -89.06594 | 39082 ft | 611 kts | 121° |
| 2026-04-28 11:24 | 30.67451 | -88.98177 | 39072 ft | 610 kts | 121° |
| 2026-04-28 11:25 | 30.63779 | -88.91163 | 39071 ft | 610 kts | 121° |
| 2026-04-28 11:25 | 30.58655 | -88.81393 | 39073 ft | 609 kts | 121° |
| 2026-04-28 11:26 | 30.54950 | -88.74339 | 39093 ft | 608 kts | 121° |
| 2026-04-28 11:26 | 30.50544 | -88.65964 | 39095 ft | 608 kts | 121° |
| 2026-04-28 11:27 | 30.46155 | -88.57643 | 39097 ft | 607 kts | 121° |
| 2026-04-28 11:27 | 30.41758 | -88.49325 | 39098 ft | 606 kts | 121° |
| 2026-04-28 11:28 | 30.37340 | -88.40984 | 39094 ft | 606 kts | 121° |
| 2026-04-28 11:28 | 30.32922 | -88.32661 | 39091 ft | 605 kts | 121° |
| 2026-04-28 11:29 | 30.28525 | -88.24393 | 39091 ft | 604 kts | 121° |
| 2026-04-28 11:29 | 30.24104 | -88.16097 | 39092 ft | 604 kts | 121° |
| 2026-04-28 11:30 | 30.19704 | -88.07860 | 39095 ft | 603 kts | 121° |
| 2026-04-28 11:30 | 30.13071 | -87.95472 | 39097 ft | 602 kts | 121° |
| 2026-04-28 11:31 | 30.08681 | -87.87295 | 39099 ft | 602 kts | 121° |
| 2026-04-28 11:31 | 30.04244 | -87.79047 | 39100 ft | 602 kts | 121° |
| 2026-04-28 11:32 | 29.99845 | -87.70887 | 39095 ft | 601 kts | 121° |
| 2026-04-28 11:32 | 29.95413 | -87.62680 | 39093 ft | 601 kts | 121° |
| 2026-04-28 11:33 | 29.91001 | -87.54530 | 39092 ft | 601 kts | 121° |
| 2026-04-28 11:33 | 29.86565 | -87.46351 | 39093 ft | 601 kts | 121° |
| 2026-04-28 11:34 | 29.82126 | -87.38182 | 39090 ft | 601 kts | 121° |
| 2026-04-28 11:34 | 29.77680 | -87.30016 | 39091 ft | 601 kts | 121° |
| 2026-04-28 11:35 | 29.73242 | -87.21884 | 39091 ft | 601 kts | 122° |
| 2026-04-28 11:35 | 29.68784 | -87.13730 | 39095 ft | 601 kts | 122° |
| 2026-04-28 11:36 | 29.64350 | -87.05636 | 39090 ft | 602 kts | 122° |
| 2026-04-28 11:36 | 29.59870 | -86.97474 | 39099 ft | 601 kts | 122° |
| 2026-04-28 11:37 | 29.55424 | -86.89390 | 39095 ft | 601 kts | 122° |
| 2026-04-28 11:37 | 29.50937 | -86.81250 | 39099 ft | 601 kts | 122° |
| 2026-04-28 11:38 | 29.46484 | -86.73186 | 39098 ft | 601 kts | 122° |
| 2026-04-28 11:38 | 29.42001 | -86.65083 | 39097 ft | 601 kts | 122° |
| 2026-04-28 11:39 | 29.37413 | -86.57040 | 39102 ft | 601 kts | 124° |
| 2026-04-28 11:39 | 29.32542 | -86.49321 | 39106 ft | 600 kts | 127° |
| 2026-04-28 11:40 | 29.27853 | -86.41394 | 39111 ft | 599 kts | 118° |
| 2026-04-28 11:40 | 29.23872 | -86.33017 | 39110 ft | 598 kts | 117° |
| 2026-04-28 11:41 | 29.19660 | -86.24889 | 39111 ft | 598 kts | 124° |
| 2026-04-28 11:41 | 29.15169 | -86.16867 | 39111 ft | 598 kts | 123° |
| 2026-04-28 11:42 | 29.10656 | -86.08852 | 39111 ft | 598 kts | 122° |
| 2026-04-28 11:42 | 29.06154 | -86.00870 | 39109 ft | 598 kts | 122° |
| 2026-04-28 11:43 | 29.01652 | -85.92873 | 39112 ft | 598 kts | 122° |
| 2026-04-28 11:43 | 28.97178 | -85.84934 | 39112 ft | 598 kts | 122° |
| 2026-04-28 11:44 | 28.92633 | -85.76894 | 39111 ft | 599 kts | 122° |
| 2026-04-28 11:44 | 28.88144 | -85.68968 | 39111 ft | 599 kts | 122° |
| 2026-04-28 11:45 | 28.83606 | -85.60971 | 39111 ft | 600 kts | 122° |
| 2026-04-28 11:45 | 28.79061 | -85.52976 | 39111 ft | 601 kts | 122° |
| 2026-04-28 11:46 | 28.74509 | -85.44984 | 39111 ft | 601 kts | 122° |
| 2026-04-28 11:46 | 28.69955 | -85.37003 | 39115 ft | 601 kts | 122° |
| 2026-04-28 11:47 | 28.65387 | -85.29014 | 39115 ft | 601 kts | 122° |
| 2026-04-28 11:47 | 28.60820 | -85.21041 | 39118 ft | 601 kts | 122° |
| 2026-04-28 11:48 | 28.56277 | -85.13126 | 39118 ft | 601 kts | 122° |
| 2026-04-28 11:48 | 28.51701 | -85.05166 | 39115 ft | 601 kts | 122° |
| 2026-04-28 11:49 | 28.47127 | -84.97226 | 39119 ft | 600 kts | 122° |
| 2026-04-28 11:49 | 28.42542 | -84.89283 | 39118 ft | 600 kts | 122° |
| 2026-04-28 11:50 | 28.37958 | -84.81356 | 39119 ft | 600 kts | 122° |
| 2026-04-28 11:50 | 28.33371 | -84.73437 | 39121 ft | 600 kts | 122° |
| 2026-04-28 11:51 | 28.28778 | -84.65523 | 39123 ft | 601 kts | 122° |
| 2026-04-28 11:51 | 28.24159 | -84.57581 | 38259 ft | 607 kts | 122° |
| 2026-04-28 11:52 | 28.21830 | -84.53581 | 37463 ft | 607 kts | 122° |
| 2026-04-28 11:52 | 28.19505 | -84.49592 | 36700 ft | 607 kts | 122° |
| 2026-04-28 11:52 | 28.17178 | -84.45604 | 35963 ft | 606 kts | 122° |
| 2026-04-28 11:52 | 28.14849 | -84.41614 | 35245 ft | 606 kts | 121° |
| 2026-04-28 11:53 | 28.12526 | -84.37639 | 34544 ft | 606 kts | 121° |
| 2026-04-28 11:53 | 28.10195 | -84.33654 | 33820 ft | 606 kts | 121° |
| 2026-04-28 11:53 | 28.07863 | -84.29668 | 33041 ft | 608 kts | 121° |
| 2026-04-28 11:53 | 28.05522 | -84.25676 | 32282 ft | 610 kts | 122° |
| 2026-04-28 11:54 | 28.03171 | -84.21667 | 31545 ft | 611 kts | 122° |
| 2026-04-28 11:54 | 28.00814 | -84.17652 | 30829 ft | 613 kts | 122° |
| 2026-04-28 11:54 | 27.98485 | -84.13691 | 30132 ft | 614 kts | 122° |
| 2026-04-28 11:54 | 27.96116 | -84.09665 | 29317 ft | 614 kts | 122° |
| 2026-04-28 11:55 | 27.93744 | -84.05635 | 28508 ft | 614 kts | 122° |
| 2026-04-28 11:55 | 27.91371 | -84.01610 | 27743 ft | 614 kts | 122° |
| 2026-04-28 11:55 | 27.89004 | -83.97598 | 26997 ft | 613 kts | 122° |
| 2026-04-28 11:55 | 27.86728 | -83.93525 | 26260 ft | 611 kts | 114° |
| 2026-04-28 11:56 | 27.85316 | -83.89038 | 25607 ft | 605 kts | 98° |
| 2026-04-28 11:56 | 27.85019 | -83.84343 | 24973 ft | 599 kts | 84° |
| 2026-04-28 11:56 | 27.85498 | -83.79664 | 24307 ft | 598 kts | 79° |
| 2026-04-28 11:56 | 27.86187 | -83.75040 | 23639 ft | 598 kts | 77° |
| 2026-04-28 11:57 | 27.86938 | -83.70419 | 22846 ft | 599 kts | 77° |
| 2026-04-28 11:57 | 27.87635 | -83.65737 | 22068 ft | 611 kts | 82° |
| 2026-04-28 11:57 | 27.87928 | -83.60917 | 21330 ft | 616 kts | 85° |
| 2026-04-28 11:57 | 27.88285 | -83.56147 | 20619 ft | 616 kts | 82° |
| 2026-04-28 11:58 | 27.88705 | -83.51313 | 19903 ft | 618 kts | 84° |
| 2026-04-28 11:58 | 27.89052 | -83.46466 | 19213 ft | 619 kts | 83° |
| 2026-04-28 11:58 | 27.89468 | -83.41625 | 18542 ft | 620 kts | 83° |
| 2026-04-28 11:58 | 27.89825 | -83.36766 | 17767 ft | 621 kts | 83° |
| 2026-04-28 11:59 | 27.90219 | -83.31896 | 17008 ft | 621 kts | 83° |
| 2026-04-28 11:59 | 27.90596 | -83.27017 | 16253 ft | 622 kts | 83° |
| 2026-04-28 11:59 | 27.90971 | -83.22142 | 15541 ft | 623 kts | 83° |
| 2026-04-28 11:59 | 27.90966 | -83.17243 | 14867 ft | 626 kts | 97° |
| 2026-04-28 12:00 | 27.89854 | -83.12475 | 14244 ft | 632 kts | 111° |
| 2026-04-28 12:00 | 27.87676 | -83.08154 | 13549 ft | 637 kts | 126° |
| 2026-04-28 12:00 | 27.84670 | -83.04674 | 12915 ft | 642 kts | 141° |
| 2026-04-28 12:00 | 27.80875 | -83.01962 | 12218 ft | 647 kts | 149° |
| 2026-04-28 12:01 | 27.77141 | -82.99147 | 11498 ft | 646 kts | 139° |
| 2026-04-28 12:01 | 27.73968 | -82.95591 | 10864 ft | 643 kts | 128° |
| 2026-04-28 12:01 | 27.71171 | -82.91662 | 10422 ft | 642 kts | 128° |
| 2026-04-28 12:01 | 27.68144 | -82.87937 | 10264 ft | 643 kts | 131° |
| 2026-04-28 12:02 | 27.65214 | -82.84369 | 10186 ft | 643 kts | 133° |
| 2026-04-28 12:02 | 27.61860 | -82.80778 | 10161 ft | 644 kts | 134° |
| 2026-04-28 12:02 | 27.58751 | -82.77166 | 10148 ft | 643 kts | 131° |
| 2026-04-28 12:02 | 27.55581 | -82.73592 | 10129 ft | 644 kts | 134° |
| 2026-04-28 12:03 | 27.52766 | -82.69811 | 8842 ft | 626 kts | 113° |
| 2026-04-28 12:03 | 27.50958 | -82.65258 | 5299 ft | 653 kts | 112° |
| 2026-04-28 12:03 | 27.48791 | -82.60812 | 3139 ft | 643 kts | 130° |
| 2026-04-28 12:03 | 27.45785 | -82.57180 | 3141 ft | 641 kts | 133° |
| 2026-04-28 12:04 | 27.42738 | -82.53524 | 2966 ft | 641 kts | 133° |
| 2026-04-28 12:04 | 27.39689 | -82.49862 | 2773 ft | 637 kts | 133° |
| 2026-04-28 12:04 | 27.36650 | -82.46216 | 2562 ft | 637 kts | 133° |
| 2026-04-28 12:04 | 27.32763 | -82.45148 | 2194 ft | 644 kts | 218° |
| 2026-04-28 12:05 | 27.33340 | -82.49350 | 1505 ft | 651 kts | 321° |
| 2026-04-28 12:05 | 27.36684 | -82.52774 | 1132 ft | 652 kts | 315° |
| 2026-04-28 12:05 | 27.40164 | -82.55515 | 1232 ft | 581 kts | 13° |
| 2026-04-28 12:05 | 27.41334 | -82.52773 | 1191 ft | 396 kts | 129° |
| 2026-04-28 12:06 | 27.39633 | -82.50787 | 1138 ft | 339 kts | 131° |
| 2026-04-28 12:06 | 27.38154 | -82.48975 | 1488 ft | 282 kts | 132° |
| 2026-04-28 12:06 | 27.36571 | -82.47788 | 1939 ft | 310 kts | 178° |
| 2026-04-28 12:06 | 27.35052 | -82.49028 | 1620 ft | 270 kts | 253° |
| 2026-04-28 12:07 | 27.35440 | -82.50827 | 1313 ft | 224 kts | 315° |
| 2026-04-28 12:07 | 27.36478 | -82.52021 | 861 ft | 197 kts | 315° |
| 2026-04-28 12:07 | 27.37349 | -82.53015 | 461 ft | 167 kts | 317° |
| 2026-04-28 12:07 | 27.38147 | -82.53922 | 263 ft | 161 kts | 318° |
| 2026-04-28 12:08 | 27.38834 | -82.54705 | 41 ft | 127 kts | 317° |
| 2026-04-28 12:08 | 27.39363 | -82.55307 | 27 ft | 86 kts | 313° |
| 2026-04-28 12:08 | 27.39676 | -82.55668 | 28 ft | 28 kts | 310° |
| 2026-04-28 12:08 | 27.39801 | -82.55641 | 29 ft | 19 kts | 54° |
| 2026-04-28 12:09 | 27.39815 | -82.55499 | 29 ft | 19 kts | 85° |
| 2026-04-28 12:09 | 27.39824 | -82.55342 | 29 ft | 21 kts | 86° |
| 2026-04-28 12:09 | 27.39772 | -82.55198 | 29 ft | 21 kts | 127° |
| 2026-04-28 12:09 | 27.39688 | -82.55061 | 29 ft | 17 kts | 126° |
| 2026-04-28 12:10 | 27.39702 | -82.55000 | 29 ft | 13 kts | 44° |
| 2026-04-28 12:10 | 27.39734 | -82.54927 | 29 ft | 10 kts | 120° |
| 2026-04-28 12:10 | 27.39696 | -82.54851 | 29 ft | 12 kts | 116° |
| 2026-04-28 12:10 | 27.39690 | -82.54792 | 29 ft | 2 kts | 49° |
| 2026-04-28 12:11 | 27.39698 | -82.54791 | 29 ft | 0 kts | 356° |
| 2026-04-28 12:11 | 27.39599 | -82.54784 | 29 ft | 0 kts | 356° |
| 2026-04-28 12:11 | 27.39662 | -82.54789 | 29 ft | 0 kts | 356° |